Henning, Texas
Current Conditions -  °F | °C
As of 5:55 PM on Sunday 21 Dec 2014 (Local Time) from KOCH Reporting Station
Overcast Overcast  
Wind Chill: 52°   Ceiling: 1500
Heat Index: 52°   Visibility: 10mi
Dew Point: 45°   Wind: 5mph
Humidity: 76%   Direction: 190°S
Pressure: 29.96"   Gusts: NA
Location:  31.7931°N, 94.5281°W
Report Text: KOCH 212355Z AUTO 19004KT 10SM OVC015 11/07 A2996 RMK AO1 10110 20090 57014
Loading
Personal Weather Stations






























Interactive Weather Map New forecast layout! Learn more

10-Day Weather Forecast

Advertisements
Track Severe Weather on mobile